map of HII home
HII - Airport
Location
City:  Lake Havasu City, Arizona, United States
ICAO:KHII
IATA:HII
FAA LID:HII

Details
Type:Airport (Airfield)
Use:Public/Civil
Latitude:3434'16"N (34.571111)
Longitude:11421'30"W (-114.358277)
Datum:WGS 1984
Elevation:783 ft (239 m)
Variation:11.07E (WMM2015v2 magnetic declination)
-0.09 annual change
Runways:1
Longest:8001 × 100 ft (2439 × 30.5 m), paved

Time
Time Zone:UTC-7
Local Time:

Weather
METAR:KHII 041350Z AUTO 13013KT 10SM OVC060 13/04 A2980 RMK AO2

Related Locations
Nearby:
Farthest:RRG: 11401 mi / 18348 km
Plaine Corail [Sir Gatan Duval Airport (Plaine Corail Airport)], Rodrigues Island, MU

Find:

   beyond  
but within

Other Information
Maps:
NOTAMs:
Links:
Sources:

  
  • flag of United States
  • flag of Arizona
  

Sectional Chart

Flight Planning
at skyvector.com

Satellite Image

Google Maps Satellite view

 

Copyright © 2004-2019 Karl L. Swartz. All rights reserved.
The Great Circle Mapper name and logo are trademarks of the Great Circle Mapper.
All other trademarks mentioned herein belong to their respective owners.
Please see credits for attibutions and further copyright information.

  Follow gcmap on Facebook Follow gcmap on Twitter GCmap on LinkedIn

hCard Microformat

Geo Microformat